sensor_id;sensor_type;location;lat;lon;timestamp;temperature;humidity
67942;SHT31;54731;42.600;23.476;2023-08-24T00:01:54;23.31;55.12
67942;SHT31;54731;42.600;23.476;2023-08-24T00:04:19;23.25;55.44
67942;SHT31;54731;42.600;23.476;2023-08-24T00:06:45;23.29;54.71
67942;SHT31;54731;42.600;23.476;2023-08-24T00:09:10;23.25;55.27
67942;SHT31;54731;42.600;23.476;2023-08-24T00:11:35;23.18;55.20
67942;SHT31;54731;42.600;23.476;2023-08-24T00:14:00;23.21;54.90
67942;SHT31;54731;42.600;23.476;2023-08-24T00:16:26;23.24;54.57
67942;SHT31;54731;42.600;23.476;2023-08-24T00:18:51;23.19;54.50
67942;SHT31;54731;42.600;23.476;2023-08-24T00:21:16;23.14;54.59
67942;SHT31;54731;42.600;23.476;2023-08-24T00:23:42;23.11;54.84
67942;SHT31;54731;42.600;23.476;2023-08-24T00:26:08;23.10;55.27
67942;SHT31;54731;42.600;23.476;2023-08-24T00:28:33;23.12;54.96
67942;SHT31;54731;42.600;23.476;2023-08-24T00:30:58;23.12;55.14
67942;SHT31;54731;42.600;23.476;2023-08-24T00:33:23;23.08;55.06
67942;SHT31;54731;42.600;23.476;2023-08-24T00:35:49;23.08;55.16
67942;SHT31;54731;42.600;23.476;2023-08-24T00:38:14;23.07;55.22
67942;SHT31;54731;42.600;23.476;2023-08-24T00:40:42;23.04;55.33
67942;SHT31;54731;42.600;23.476;2023-08-24T00:43:07;23.00;55.46
67942;SHT31;54731;42.600;23.476;2023-08-24T00:45:32;22.95;55.48
67942;SHT31;54731;42.600;23.476;2023-08-24T00:47:58;22.94;55.57
67942;SHT31;54731;42.600;23.476;2023-08-24T00:50:23;22.94;55.68
67942;SHT31;54731;42.600;23.476;2023-08-24T00:52:49;22.95;55.68
67942;SHT31;54731;42.600;23.476;2023-08-24T00:55:15;22.88;56.04
67942;SHT31;54731;42.600;23.476;2023-08-24T00:57:41;22.83;56.34
67942;SHT31;54731;42.600;23.476;2023-08-24T01:00:07;22.80;56.51
67942;SHT31;54731;42.600;23.476;2023-08-24T01:02:33;22.81;56.77
67942;SHT31;54731;42.600;23.476;2023-08-24T01:04:59;22.78;56.14
67942;SHT31;54731;42.600;23.476;2023-08-24T01:07:24;22.80;55.98
67942;SHT31;54731;42.600;23.476;2023-08-24T01:09:50;22.78;56.34
67942;SHT31;54731;42.600;23.476;2023-08-24T01:14:49;22.74;56.01
67942;SHT31;54731;42.600;23.476;2023-08-24T01:17:18;22.73;56.17
67942;SHT31;54731;42.600;23.476;2023-08-24T01:19:47;22.68;56.31
67942;SHT31;54731;42.600;23.476;2023-08-24T01:25:05;22.59;57.10
67942;SHT31;54731;42.600;23.476;2023-08-24T01:27:32;22.61;57.18
67942;SHT31;54731;42.600;23.476;2023-08-24T01:29:58;22.63;56.73
67942;SHT31;54731;42.600;23.476;2023-08-24T01:32:24;22.59;56.94
67942;SHT31;54731;42.600;23.476;2023-08-24T01:34:49;22.53;56.73
67942;SHT31;54731;42.600;23.476;2023-08-24T01:37:15;22.44;56.93
67942;SHT31;54731;42.600;23.476;2023-08-24T01:39:53;22.41;57.24
67942;SHT31;54731;42.600;23.476;2023-08-24T01:42:21;22.36;57.12
67942;SHT31;54731;42.600;23.476;2023-08-24T01:44:52;22.39;56.95
67942;SHT31;54731;42.600;23.476;2023-08-24T01:47:21;22.39;57.38
67942;SHT31;54731;42.600;23.476;2023-08-24T01:49:47;22.36;57.98
67942;SHT31;54731;42.600;23.476;2023-08-24T01:52:13;22.37;57.40
67942;SHT31;54731;42.600;23.476;2023-08-24T01:54:39;22.36;57.70
67942;SHT31;54731;42.600;23.476;2023-08-24T01:57:05;22.33;57.87
67942;SHT31;54731;42.600;23.476;2023-08-24T01:59:30;22.33;57.86
67942;SHT31;54731;42.600;23.476;2023-08-24T02:01:55;22.29;58.05
67942;SHT31;54731;42.600;23.476;2023-08-24T02:04:21;22.26;57.57
67942;SHT31;54731;42.600;23.476;2023-08-24T02:06:46;22.22;57.77
67942;SHT31;54731;42.600;23.476;2023-08-24T02:09:11;22.20;57.74
67942;SHT31;54731;42.600;23.476;2023-08-24T02:11:37;22.17;57.82
67942;SHT31;54731;42.600;23.476;2023-08-24T02:14:02;22.14;57.55
67942;SHT31;54731;42.600;23.476;2023-08-24T02:16:27;22.09;57.52
67942;SHT31;54731;42.600;23.476;2023-08-24T02:18:52;22.12;57.45
67942;SHT31;54731;42.600;23.476;2023-08-24T02:21:18;22.19;57.00
67942;SHT31;54731;42.600;23.476;2023-08-24T02:23:43;22.19;57.45
67942;SHT31;54731;42.600;23.476;2023-08-24T02:26:08;22.16;57.56
67942;SHT31;54731;42.600;23.476;2023-08-24T02:28:36;22.10;57.58
67942;SHT31;54731;42.600;23.476;2023-08-24T02:31:05;22.13;57.74
67942;SHT31;54731;42.600;23.476;2023-08-24T02:33:31;22.08;58.51
67942;SHT31;54731;42.600;23.476;2023-08-24T02:35:57;21.98;59.04
67942;SHT31;54731;42.600;23.476;2023-08-24T02:38:23;21.96;59.42
67942;SHT31;54731;42.600;23.476;2023-08-24T02:40:48;21.93;58.80
67942;SHT31;54731;42.600;23.476;2023-08-24T02:43:14;21.90;58.73
67942;SHT31;54731;42.600;23.476;2023-08-24T02:45:39;21.83;59.16
67942;SHT31;54731;42.600;23.476;2023-08-24T02:48:05;21.76;58.79
67942;SHT31;54731;42.600;23.476;2023-08-24T02:50:30;21.68;58.94
67942;SHT31;54731;42.600;23.476;2023-08-24T02:52:55;21.66;58.53
67942;SHT31;54731;42.600;23.476;2023-08-24T02:55:21;21.66;58.36
67942;SHT31;54731;42.600;23.476;2023-08-24T02:57:46;21.62;58.61
67942;SHT31;54731;42.600;23.476;2023-08-24T03:00:12;21.63;58.91
67942;SHT31;54731;42.600;23.476;2023-08-24T03:02:37;21.57;58.64
67942;SHT31;54731;42.600;23.476;2023-08-24T03:05:02;21.58;58.06
67942;SHT31;54731;42.600;23.476;2023-08-24T03:07:28;21.65;57.96
67942;SHT31;54731;42.600;23.476;2023-08-24T03:09:53;21.61;57.83
67942;SHT31;54731;42.600;23.476;2023-08-24T03:12:18;21.65;57.64
67942;SHT31;54731;42.600;23.476;2023-08-24T03:14:43;21.69;57.74
67942;SHT31;54731;42.600;23.476;2023-08-24T03:17:09;21.68;57.53
67942;SHT31;54731;42.600;23.476;2023-08-24T03:19:34;21.72;57.30
67942;SHT31;54731;42.600;23.476;2023-08-24T03:21:59;21.78;57.16
67942;SHT31;54731;42.600;23.476;2023-08-24T03:24:25;21.79;56.96
67942;SHT31;54731;42.600;23.476;2023-08-24T03:26:50;21.82;57.33
67942;SHT31;54731;42.600;23.476;2023-08-24T03:29:15;21.81;58.53
67942;SHT31;54731;42.600;23.476;2023-08-24T03:31:41;21.82;57.00
67942;SHT31;54731;42.600;23.476;2023-08-24T03:34:06;21.63;58.64
67942;SHT31;54731;42.600;23.476;2023-08-24T03:36:31;21.62;59.21
67942;SHT31;54731;42.600;23.476;2023-08-24T03:38:56;21.48;60.30
67942;SHT31;54731;42.600;23.476;2023-08-24T03:41:22;21.38;61.33
67942;SHT31;54731;42.600;23.476;2023-08-24T03:43:47;21.35;61.86
67942;SHT31;54731;42.600;23.476;2023-08-24T03:46:12;21.28;62.09
67942;SHT31;54731;42.600;23.476;2023-08-24T03:48:38;21.25;62.30
67942;SHT31;54731;42.600;23.476;2023-08-24T03:51:03;21.20;62.47
67942;SHT31;54731;42.600;23.476;2023-08-24T03:53:29;21.18;63.33
67942;SHT31;54731;42.600;23.476;2023-08-24T03:55:54;21.18;63.65
67942;SHT31;54731;42.600;23.476;2023-08-24T03:58:20;21.24;63.73
67942;SHT31;54731;42.600;23.476;2023-08-24T04:00:45;21.18;64.00
67942;SHT31;54731;42.600;23.476;2023-08-24T04:03:11;21.15;63.75
67942;SHT31;54731;42.600;23.476;2023-08-24T04:05:36;21.14;62.96
67942;SHT31;54731;42.600;23.476;2023-08-24T04:08:02;21.08;63.41
67942;SHT31;54731;42.600;23.476;2023-08-24T04:10:29;21.03;63.32
67942;SHT31;54731;42.600;23.476;2023-08-24T04:12:54;21.01;63.05
67942;SHT31;54731;42.600;23.476;2023-08-24T04:15:19;21.00;62.24
67942;SHT31;54731;42.600;23.476;2023-08-24T04:17:45;20.97;62.08
67942;SHT31;54731;42.600;23.476;2023-08-24T04:20:11;21.00;61.93
67942;SHT31;54731;42.600;23.476;2023-08-24T04:22:37;20.91;62.28
67942;SHT31;54731;42.600;23.476;2023-08-24T04:25:02;20.90;62.04
67942;SHT31;54731;42.600;23.476;2023-08-24T04:27:28;20.93;62.53
67942;SHT31;54731;42.600;23.476;2023-08-24T04:29:53;20.91;63.54
67942;SHT31;54731;42.600;23.476;2023-08-24T04:32:18;21.00;61.89
67942;SHT31;54731;42.600;23.476;2023-08-24T04:34:44;21.05;61.66
67942;SHT31;54731;42.600;23.476;2023-08-24T04:37:09;21.10;62.89
67942;SHT31;54731;42.600;23.476;2023-08-24T04:39:34;21.08;62.92
67942;SHT31;54731;42.600;23.476;2023-08-24T04:42:00;21.05;62.46
67942;SHT31;54731;42.600;23.476;2023-08-24T04:44:25;21.10;63.16
67942;SHT31;54731;42.600;23.476;2023-08-24T04:46:50;21.07;63.55
67942;SHT31;54731;42.600;23.476;2023-08-24T04:49:16;21.12;63.01
67942;SHT31;54731;42.600;23.476;2023-08-24T04:51:41;21.12;63.82
67942;SHT31;54731;42.600;23.476;2023-08-24T04:54:06;21.12;63.75
67942;SHT31;54731;42.600;23.476;2023-08-24T04:56:32;21.14;64.52
67942;SHT31;54731;42.600;23.476;2023-08-24T04:58:58;21.04;63.64
67942;SHT31;54731;42.600;23.476;2023-08-24T05:01:24;21.08;65.10
67942;SHT31;54731;42.600;23.476;2023-08-24T05:03:49;21.11;65.24
67942;SHT31;54731;42.600;23.476;2023-08-24T05:06:14;21.12;65.55
67942;SHT31;54731;42.600;23.476;2023-08-24T05:08:39;21.15;66.13
67942;SHT31;54731;42.600;23.476;2023-08-24T05:11:31;21.23;66.20
67942;SHT31;54731;42.600;23.476;2023-08-24T05:13:56;21.27;66.13
67942;SHT31;54731;42.600;23.476;2023-08-24T05:16:22;21.31;65.06
67942;SHT31;54731;42.600;23.476;2023-08-24T05:18:47;21.34;65.43
67942;SHT31;54731;42.600;23.476;2023-08-24T05:21:12;21.41;65.30
67942;SHT31;54731;42.600;23.476;2023-08-24T05:23:38;21.45;64.19
67942;SHT31;54731;42.600;23.476;2023-08-24T05:26:03;21.54;65.37
67942;SHT31;54731;42.600;23.476;2023-08-24T05:28:29;21.58;64.60
67942;SHT31;54731;42.600;23.476;2023-08-24T05:30:55;21.68;65.16
67942;SHT31;54731;42.600;23.476;2023-08-24T05:33:22;21.76;65.28
67942;SHT31;54731;42.600;23.476;2023-08-24T05:35:48;21.86;64.84
67942;SHT31;54731;42.600;23.476;2023-08-24T05:38:14;21.92;65.74
67942;SHT31;54731;42.600;23.476;2023-08-24T05:40:40;21.95;64.95
67942;SHT31;54731;42.600;23.476;2023-08-24T05:43:05;22.00;64.92
67942;SHT31;54731;42.600;23.476;2023-08-24T05:45:31;22.08;65.77
67942;SHT31;54731;42.600;23.476;2023-08-24T05:47:56;22.12;64.95
67942;SHT31;54731;42.600;23.476;2023-08-24T05:50:21;22.19;64.30
67942;SHT31;54731;42.600;23.476;2023-08-24T05:52:47;22.14;65.05
67942;SHT31;54731;42.600;23.476;2023-08-24T05:55:12;22.17;65.08
67942;SHT31;54731;42.600;23.476;2023-08-24T05:57:37;22.08;64.54
67942;SHT31;54731;42.600;23.476;2023-08-24T06:00:04;22.10;63.81
67942;SHT31;54731;42.600;23.476;2023-08-24T06:02:29;22.09;64.41
67942;SHT31;54731;42.600;23.476;2023-08-24T06:04:55;22.03;64.05
67942;SHT31;54731;42.600;23.476;2023-08-24T06:07:20;22.13;63.82
67942;SHT31;54731;42.600;23.476;2023-08-24T06:09:45;22.14;63.65
67942;SHT31;54731;42.600;23.476;2023-08-24T06:12:10;22.23;63.28
67942;SHT31;54731;42.600;23.476;2023-08-24T06:14:36;22.20;63.82
67942;SHT31;54731;42.600;23.476;2023-08-24T06:17:01;22.22;64.34
67942;SHT31;54731;42.600;23.476;2023-08-24T06:19:26;22.19;64.13
67942;SHT31;54731;42.600;23.476;2023-08-24T06:21:52;21.95;64.99
67942;SHT31;54731;42.600;23.476;2023-08-24T06:24:17;22.02;65.54
67942;SHT31;54731;42.600;23.476;2023-08-24T06:26:42;22.12;64.79
67942;SHT31;54731;42.600;23.476;2023-08-24T06:29:07;22.03;64.56
67942;SHT31;54731;42.600;23.476;2023-08-24T06:31:33;22.08;64.60
67942;SHT31;54731;42.600;23.476;2023-08-24T06:33:58;21.95;64.41
67942;SHT31;54731;42.600;23.476;2023-08-24T06:36:24;22.00;64.61
67942;SHT31;54731;42.600;23.476;2023-08-24T06:38:49;22.08;64.42
67942;SHT31;54731;42.600;23.476;2023-08-24T06:41:14;22.10;64.28
67942;SHT31;54731;42.600;23.476;2023-08-24T06:43:40;22.09;64.21
67942;SHT31;54731;42.600;23.476;2023-08-24T06:46:05;22.20;64.14
67942;SHT31;54731;42.600;23.476;2023-08-24T06:48:30;22.28;64.51
67942;SHT31;54731;42.600;23.476;2023-08-24T06:50:56;22.40;63.62
67942;SHT31;54731;42.600;23.476;2023-08-24T06:53:21;22.37;63.30
67942;SHT31;54731;42.600;23.476;2023-08-24T06:55:46;22.50;63.37
67942;SHT31;54731;42.600;23.476;2023-08-24T06:58:12;22.63;63.21
67942;SHT31;54731;42.600;23.476;2023-08-24T07:00:37;22.61;63.37
67942;SHT31;54731;42.600;23.476;2023-08-24T07:03:02;22.74;62.97
67942;SHT31;54731;42.600;23.476;2023-08-24T07:05:28;22.87;63.18
67942;SHT31;54731;42.600;23.476;2023-08-24T07:07:53;22.97;63.50
67942;SHT31;54731;42.600;23.476;2023-08-24T07:10:19;23.07;63.08
67942;SHT31;54731;42.600;23.476;2023-08-24T07:12:44;23.10;62.21
67942;SHT31;54731;42.600;23.476;2023-08-24T07:15:10;23.16;62.06
67942;SHT31;54731;42.600;23.476;2023-08-24T07:17:36;23.26;61.42
67942;SHT31;54731;42.600;23.476;2023-08-24T07:20:03;23.19;61.46
67942;SHT31;54731;42.600;23.476;2023-08-24T07:22:28;23.22;61.96
67942;SHT31;54731;42.600;23.476;2023-08-24T07:24:53;23.26;61.80
67942;SHT31;54731;42.600;23.476;2023-08-24T07:27:19;23.42;61.81
67942;SHT31;54731;42.600;23.476;2023-08-24T07:29:45;23.58;61.25
67942;SHT31;54731;42.600;23.476;2023-08-24T07:32:10;23.68;60.82
67942;SHT31;54731;42.600;23.476;2023-08-24T07:34:35;23.77;60.25
67942;SHT31;54731;42.600;23.476;2023-08-24T07:37:01;23.89;60.72
67942;SHT31;54731;42.600;23.476;2023-08-24T07:39:26;23.96;60.05
67942;SHT31;54731;42.600;23.476;2023-08-24T07:41:51;24.03;59.10
67942;SHT31;54731;42.600;23.476;2023-08-24T07:44:17;24.06;59.34
67942;SHT31;54731;42.600;23.476;2023-08-24T07:46:42;24.13;58.60
67942;SHT31;54731;42.600;23.476;2023-08-24T07:49:07;24.19;59.29
67942;SHT31;54731;42.600;23.476;2023-08-24T07:51:33;24.30;60.15
67942;SHT31;54731;42.600;23.476;2023-08-24T07:53:59;24.40;58.90
67942;SHT31;54731;42.600;23.476;2023-08-24T07:56:24;24.49;58.92
67942;SHT31;54731;42.600;23.476;2023-08-24T07:58:49;24.56;59.01
67942;SHT31;54731;42.600;23.476;2023-08-24T08:01:15;24.65;58.26
67942;SHT31;54731;42.600;23.476;2023-08-24T08:03:40;24.72;58.02
67942;SHT31;54731;42.600;23.476;2023-08-24T08:06:05;24.78;58.65
67942;SHT31;54731;42.600;23.476;2023-08-24T08:08:31;24.75;58.28
67942;SHT31;54731;42.600;23.476;2023-08-24T08:11:00;24.84;57.49
67942;SHT31;54731;42.600;23.476;2023-08-24T08:13:27;24.91;59.22
67942;SHT31;54731;42.600;23.476;2023-08-24T08:15:53;25.01;57.64
67942;SHT31;54731;42.600;23.476;2023-08-24T08:18:18;25.10;57.82
67942;SHT31;54731;42.600;23.476;2023-08-24T08:20:43;25.14;57.84
67942;SHT31;54731;42.600;23.476;2023-08-24T08:23:08;25.22;57.60
67942;SHT31;54731;42.600;23.476;2023-08-24T08:25:34;25.21;57.23
67942;SHT31;54731;42.600;23.476;2023-08-24T08:27:59;25.25;57.68
67942;SHT31;54731;42.600;23.476;2023-08-24T08:30:24;25.31;57.54
67942;SHT31;54731;42.600;23.476;2023-08-24T08:32:50;25.26;56.34
67942;SHT31;54731;42.600;23.476;2023-08-24T08:35:15;25.29;56.81
67942;SHT31;54731;42.600;23.476;2023-08-24T08:37:40;25.28;56.42
67942;SHT31;54731;42.600;23.476;2023-08-24T08:40:09;25.31;56.33
67942;SHT31;54731;42.600;23.476;2023-08-24T08:42:35;25.32;57.08
67942;SHT31;54731;42.600;23.476;2023-08-24T08:45:02;25.34;58.22
67942;SHT31;54731;42.600;23.476;2023-08-24T08:47:29;25.41;57.83
67942;SHT31;54731;42.600;23.476;2023-08-24T08:49:55;25.49;58.11
67942;SHT31;54731;42.600;23.476;2023-08-24T08:52:20;25.58;56.77
67942;SHT31;54731;42.600;23.476;2023-08-24T08:54:46;25.72;57.03
67942;SHT31;54731;42.600;23.476;2023-08-24T08:57:11;25.83;55.29
67942;SHT31;54731;42.600;23.476;2023-08-24T08:59:38;26.01;55.26
67942;SHT31;54731;42.600;23.476;2023-08-24T09:02:03;26.07;57.02
67942;SHT31;54731;42.600;23.476;2023-08-24T09:04:33;26.14;56.31
67942;SHT31;54731;42.600;23.476;2023-08-24T09:06:58;26.24;56.37
67942;SHT31;54731;42.600;23.476;2023-08-24T09:09:25;26.40;53.06
67942;SHT31;54731;42.600;23.476;2023-08-24T09:11:51;26.52;54.23
67942;SHT31;54731;42.600;23.476;2023-08-24T09:14:16;26.58;53.25
67942;SHT31;54731;42.600;23.476;2023-08-24T09:16:42;26.68;52.60
67942;SHT31;54731;42.600;23.476;2023-08-24T09:19:11;26.78;51.93
67942;SHT31;54731;42.600;23.476;2023-08-24T09:21:37;26.90;51.62
67942;SHT31;54731;42.600;23.476;2023-08-24T09:24:03;26.91;50.85
67942;SHT31;54731;42.600;23.476;2023-08-24T09:26:32;27.01;49.71
67942;SHT31;54731;42.600;23.476;2023-08-24T09:28:59;27.05;51.32
67942;SHT31;54731;42.600;23.476;2023-08-24T09:31:35;27.16;49.86
67942;SHT31;54731;42.600;23.476;2023-08-24T09:34:01;27.29;50.10
67942;SHT31;54731;42.600;23.476;2023-08-24T09:36:26;27.41;49.69
67942;SHT31;54731;42.600;23.476;2023-08-24T09:38:51;27.59;50.09
67942;SHT31;54731;42.600;23.476;2023-08-24T09:41:17;27.63;48.81
67942;SHT31;54731;42.600;23.476;2023-08-24T09:43:42;27.73;49.80
67942;SHT31;54731;42.600;23.476;2023-08-24T09:46:07;27.80;50.06
67942;SHT31;54731;42.600;23.476;2023-08-24T09:48:33;27.90;49.02
67942;SHT31;54731;42.600;23.476;2023-08-24T09:51:01;28.00;49.24
67942;SHT31;54731;42.600;23.476;2023-08-24T09:53:28;28.10;47.98
67942;SHT31;54731;42.600;23.476;2023-08-24T09:56:01;28.18;48.96
67942;SHT31;54731;42.600;23.476;2023-08-24T09:58:28;28.29;47.93
67942;SHT31;54731;42.600;23.476;2023-08-24T10:00:54;28.38;47.10
67942;SHT31;54731;42.600;23.476;2023-08-24T10:03:26;28.49;47.11
67942;SHT31;54731;42.600;23.476;2023-08-24T10:05:53;28.59;46.83
67942;SHT31;54731;42.600;23.476;2023-08-24T10:08:24;28.69;46.63
67942;SHT31;54731;42.600;23.476;2023-08-24T10:10:53;28.78;46.95
67942;SHT31;54731;42.600;23.476;2023-08-24T10:13:27;28.95;45.87
67942;SHT31;54731;42.600;23.476;2023-08-24T10:15:55;29.03;45.60
67942;SHT31;54731;42.600;23.476;2023-08-24T10:18:21;29.15;45.41
67942;SHT31;54731;42.600;23.476;2023-08-24T10:20:47;29.30;44.91
67942;SHT31;54731;42.600;23.476;2023-08-24T10:23:14;29.43;45.74
67942;SHT31;54731;42.600;23.476;2023-08-24T10:25:40;29.59;43.50
67942;SHT31;54731;42.600;23.476;2023-08-24T10:28:06;29.73;43.91
67942;SHT31;54731;42.600;23.476;2023-08-24T10:30:34;29.85;43.68
67942;SHT31;54731;42.600;23.476;2023-08-24T10:33:01;30.07;41.74
67942;SHT31;54731;42.600;23.476;2023-08-24T10:35:27;30.23;41.16
67942;SHT31;54731;42.600;23.476;2023-08-24T10:37:53;30.31;41.11
67942;SHT31;54731;42.600;23.476;2023-08-24T10:40:37;30.45;41.10
67942;SHT31;54731;42.600;23.476;2023-08-24T10:43:03;30.58;40.66
67942;SHT31;54731;42.600;23.476;2023-08-24T10:45:59;30.78;41.19
67942;SHT31;54731;42.600;23.476;2023-08-24T10:48:25;30.85;39.32
67942;SHT31;54731;42.600;23.476;2023-08-24T10:53:40;31.29;39.71
67942;SHT31;54731;42.600;23.476;2023-08-24T10:56:12;31.33;39.87
67942;SHT31;54731;42.600;23.476;2023-08-24T10:58:38;31.53;37.65
67942;SHT31;54731;42.600;23.476;2023-08-24T11:01:03;31.71;38.78
67942;SHT31;54731;42.600;23.476;2023-08-24T11:03:32;31.90;38.80
67942;SHT31;54731;42.600;23.476;2023-08-24T11:05:58;32.01;37.81
67942;SHT31;54731;42.600;23.476;2023-08-24T11:08:47;32.25;38.02
67942;SHT31;54731;42.600;23.476;2023-08-24T11:11:20;32.54;38.24
67942;SHT31;54731;42.600;23.476;2023-08-24T11:16:40;33.00;35.98
67942;SHT31;54731;42.600;23.476;2023-08-24T11:19:06;33.20;36.72
67942;SHT31;54731;42.600;23.476;2023-08-24T11:21:33;33.26;35.42
67942;SHT31;54731;42.600;23.476;2023-08-24T11:23:59;33.36;36.53
67942;SHT31;54731;42.600;23.476;2023-08-24T11:26:25;33.34;36.06
67942;SHT31;54731;42.600;23.476;2023-08-24T11:28:53;33.30;35.79
67942;SHT31;54731;42.600;23.476;2023-08-24T11:31:18;33.27;36.72
67942;SHT31;54731;42.600;23.476;2023-08-24T11:33:43;33.15;36.63
67942;SHT31;54731;42.600;23.476;2023-08-24T11:36:09;33.29;36.92
67942;SHT31;54731;42.600;23.476;2023-08-24T11:38:41;33.22;36.14
67942;SHT31;54731;42.600;23.476;2023-08-24T11:41:14;32.94;38.69
67942;SHT31;54731;42.600;23.476;2023-08-24T11:43:40;32.39;41.02
67942;SHT31;54731;42.600;23.476;2023-08-24T11:46:05;32.20;42.27
67942;SHT31;54731;42.600;23.476;2023-08-24T11:48:31;31.90;41.73
67942;SHT31;54731;42.600;23.476;2023-08-24T11:50:59;31.88;42.65
67942;SHT31;54731;42.600;23.476;2023-08-24T11:53:25;31.87;43.02
67942;SHT31;54731;42.600;23.476;2023-08-24T11:55:53;31.78;43.47
67942;SHT31;54731;42.600;23.476;2023-08-24T11:58:19;31.78;43.70
67942;SHT31;54731;42.600;23.476;2023-08-24T12:00:46;31.66;43.78
67942;SHT31;54731;42.600;23.476;2023-08-24T12:03:12;31.50;43.31
67942;SHT31;54731;42.600;23.476;2023-08-24T12:05:38;31.49;43.42
67942;SHT31;54731;42.600;23.476;2023-08-24T12:08:04;31.49;43.50
67942;SHT31;54731;42.600;23.476;2023-08-24T12:10:30;31.43;43.34
67942;SHT31;54731;42.600;23.476;2023-08-24T12:13:05;31.06;43.78
67942;SHT31;54731;42.600;23.476;2023-08-24T12:15:34;30.85;44.41
67942;SHT31;54731;42.600;23.476;2023-08-24T12:18:07;30.69;43.61
67942;SHT31;54731;42.600;23.476;2023-08-24T12:20:32;30.48;44.50
67942;SHT31;54731;42.600;23.476;2023-08-24T12:22:58;30.57;43.94
67942;SHT31;54731;42.600;23.476;2023-08-24T12:25:24;30.49;43.47
67942;SHT31;54731;42.600;23.476;2023-08-24T12:28:08;30.44;43.79
67942;SHT31;54731;42.600;23.476;2023-08-24T12:30:49;30.27;44.07
67942;SHT31;54731;42.600;23.476;2023-08-24T12:33:22;30.07;43.82
67942;SHT31;54731;42.600;23.476;2023-08-24T12:35:48;30.05;43.84
67942;SHT31;54731;42.600;23.476;2023-08-24T12:38:13;30.14;43.91
67942;SHT31;54731;42.600;23.476;2023-08-24T12:40:38;30.17;43.22
67942;SHT31;54731;42.600;23.476;2023-08-24T12:43:04;30.05;43.40
67942;SHT31;54731;42.600;23.476;2023-08-24T12:45:29;29.80;43.40
67942;SHT31;54731;42.600;23.476;2023-08-24T12:47:54;29.72;43.70
67942;SHT31;54731;42.600;23.476;2023-08-24T12:50:20;29.59;43.84
67942;SHT31;54731;42.600;23.476;2023-08-24T12:52:45;29.56;44.07
67942;SHT31;54731;42.600;23.476;2023-08-24T12:55:10;29.62;44.10
67942;SHT31;54731;42.600;23.476;2023-08-24T12:57:35;29.57;44.35
67942;SHT31;54731;42.600;23.476;2023-08-24T13:00:01;29.52;43.95
67942;SHT31;54731;42.600;23.476;2023-08-24T13:02:26;29.54;44.12
67942;SHT31;54731;42.600;23.476;2023-08-24T13:04:51;29.57;44.33
67942;SHT31;54731;42.600;23.476;2023-08-24T13:07:17;29.57;44.21
67942;SHT31;54731;42.600;23.476;2023-08-24T13:09:42;29.62;44.56
67942;SHT31;54731;42.600;23.476;2023-08-24T13:12:07;29.69;44.02
67942;SHT31;54731;42.600;23.476;2023-08-24T13:14:33;29.67;44.05
67942;SHT31;54731;42.600;23.476;2023-08-24T13:16:58;29.73;43.97
67942;SHT31;54731;42.600;23.476;2023-08-24T13:19:23;29.76;44.76
67942;SHT31;54731;42.600;23.476;2023-08-24T13:21:48;29.80;45.21
67942;SHT31;54731;42.600;23.476;2023-08-24T13:24:14;29.84;44.00
67942;SHT31;54731;42.600;23.476;2023-08-24T13:26:39;29.87;44.72
67942;SHT31;54731;42.600;23.476;2023-08-24T13:29:04;29.93;44.95
67942;SHT31;54731;42.600;23.476;2023-08-24T13:31:30;29.96;44.73
67942;SHT31;54731;42.600;23.476;2023-08-24T13:33:55;29.94;42.32
67942;SHT31;54731;42.600;23.476;2023-08-24T13:36:20;29.96;43.11
67942;SHT31;54731;42.600;23.476;2023-08-24T13:38:46;29.94;42.46
67942;SHT31;54731;42.600;23.476;2023-08-24T13:41:11;29.93;42.57
67942;SHT31;54731;42.600;23.476;2023-08-24T13:43:36;30.03;43.07
67942;SHT31;54731;42.600;23.476;2023-08-24T13:46:01;30.03;41.85
67942;SHT31;54731;42.600;23.476;2023-08-24T13:48:27;29.96;42.59
67942;SHT31;54731;42.600;23.476;2023-08-24T13:50:52;30.00;42.67
67942;SHT31;54731;42.600;23.476;2023-08-24T13:53:18;30.08;43.28
67942;SHT31;54731;42.600;23.476;2023-08-24T13:55:43;30.17;43.49
67942;SHT31;54731;42.600;23.476;2023-08-24T13:58:08;30.21;43.84
67942;SHT31;54731;42.600;23.476;2023-08-24T14:00:34;30.31;42.85
67942;SHT31;54731;42.600;23.476;2023-08-24T14:02:59;30.25;42.19
67942;SHT31;54731;42.600;23.476;2023-08-24T14:05:24;30.25;41.86
67942;SHT31;54731;42.600;23.476;2023-08-24T14:07:50;30.31;42.18
67942;SHT31;54731;42.600;23.476;2023-08-24T14:10:15;30.44;42.64
67942;SHT31;54731;42.600;23.476;2023-08-24T14:12:40;30.57;42.06
67942;SHT31;54731;42.600;23.476;2023-08-24T14:15:06;30.76;42.88
67942;SHT31;54731;42.600;23.476;2023-08-24T14:17:32;30.96;41.97
67942;SHT31;54731;42.600;23.476;2023-08-24T14:19:57;31.12;41.14
67942;SHT31;54731;42.600;23.476;2023-08-24T14:22:22;31.09;41.11
67942;SHT31;54731;42.600;23.476;2023-08-24T14:24:48;31.19;41.25
67942;SHT31;54731;42.600;23.476;2023-08-24T14:27:13;31.20;41.04
67942;SHT31;54731;42.600;23.476;2023-08-24T14:29:38;31.23;40.65
67942;SHT31;54731;42.600;23.476;2023-08-24T14:32:04;31.33;40.66
67942;SHT31;54731;42.600;23.476;2023-08-24T14:34:29;31.25;40.51
67942;SHT31;54731;42.600;23.476;2023-08-24T14:36:54;31.46;41.50
67942;SHT31;54731;42.600;23.476;2023-08-24T14:39:19;31.54;40.82
67942;SHT31;54731;42.600;23.476;2023-08-24T14:41:45;31.44;40.92
67942;SHT31;54731;42.600;23.476;2023-08-24T14:44:10;31.54;41.05
67942;SHT31;54731;42.600;23.476;2023-08-24T14:46:35;31.64;40.31
67942;SHT31;54731;42.600;23.476;2023-08-24T14:49:01;31.77;39.95
67942;SHT31;54731;42.600;23.476;2023-08-24T14:51:26;31.74;39.50
67942;SHT31;54731;42.600;23.476;2023-08-24T14:53:51;31.77;40.49
67942;SHT31;54731;42.600;23.476;2023-08-24T14:56:17;31.84;40.26
67942;SHT31;54731;42.600;23.476;2023-08-24T14:58:42;31.81;39.32
67942;SHT31;54731;42.600;23.476;2023-08-24T15:01:07;31.67;38.51
67942;SHT31;54731;42.600;23.476;2023-08-24T15:03:32;31.64;39.47
67942;SHT31;54731;42.600;23.476;2023-08-24T15:05:59;31.61;39.37
67942;SHT31;54731;42.600;23.476;2023-08-24T15:08:25;31.74;39.27
67942;SHT31;54731;42.600;23.476;2023-08-24T15:10:54;31.91;40.01
67942;SHT31;54731;42.600;23.476;2023-08-24T15:13:19;32.05;38.80
67942;SHT31;54731;42.600;23.476;2023-08-24T15:15:45;32.07;38.33
67942;SHT31;54731;42.600;23.476;2023-08-24T15:18:10;32.14;38.04
67942;SHT31;54731;42.600;23.476;2023-08-24T15:20:37;32.05;38.75